Time;durP1;ratioP1;P1;durP2;ratioP2;P2;SDS_P1;SDS_P2;PMS_P1;PMS_P2;Temp;Humidity;BMP_temperature;BMP_pressure;BME280_temperature;BME280_humidity;BME280_pressure;Samples;Min_cycle;Max_cycle;Signal;HPM_P1;HPM_P2
2023/04/14 00:00:32;;;;;;;2.33;1.20;;;6.00;99.90;;;;;;5073809;28;20028;-81
2023/04/14 00:02:58;;;;;;;2.75;1.20;;;6.00;99.90;;;;;;5073374;28;20499;-81
2023/04/14 00:05:28;;;;;;;3.20;1.23;;;6.00;99.90;;;;;;5067760;28;20043;-81
2023/04/14 00:07:53;;;;;;;4.53;1.60;;;6.00;99.90;;;;;;5073210;28;20024;-81
2023/04/14 00:10:19;;;;;;;2.47;1.40;;;5.90;99.90;;;;;;5085005;28;20132;-81
2023/04/14 00:12:44;;;;;;;3.28;1.10;;;5.90;99.90;;;;;;5067718;28;20031;-79
2023/04/14 00:15:10;;;;;;;2.38;1.15;;;5.90;99.90;;;;;;5086322;28;20058;-81
2023/04/14 00:17:36;;;;;;;3.15;1.38;;;5.90;99.90;;;;;;5072796;28;20032;-81
2023/04/14 00:20:03;;;;;;;4.38;1.63;;;5.80;99.90;;;;;;5086850;28;20563;-81
2023/04/14 00:22:28;;;;;;;3.00;1.30;;;5.80;99.90;;;;;;5071894;28;20077;-81
2023/04/14 00:24:54;;;;;;;2.80;1.20;;;5.80;99.90;;;;;;5088832;28;20589;-81
2023/04/14 00:27:20;;;;;;;3.40;1.85;;;5.70;99.90;;;;;;5088213;28;20027;-82
2023/04/14 00:29:46;;;;;;;3.92;1.58;;;5.70;99.90;;;;;;5077099;28;20055;-80
2023/04/14 00:32:11;;;;;;;3.45;1.35;;;5.70;99.90;;;;;;5077722;28;20477;-81
2023/04/14 00:34:37;;;;;;;3.80;1.40;;;5.70;99.90;;;;;;5076732;28;20017;-80
2023/04/14 00:37:02;;;;;;;4.25;1.60;;;5.60;99.90;;;;;;5078853;28;20422;-81
2023/04/14 00:39:28;;;;;;;4.10;1.90;;;5.60;99.90;;;;;;5076122;28;20469;-81
2023/04/14 00:41:53;;;;;;;4.05;1.80;;;5.60;99.90;;;;;;5076235;28;20090;-80
2023/04/14 00:44:19;;;;;;;4.25;2.42;;;5.60;99.90;;;;;;5074957;28;20046;-81
2023/04/14 00:46:45;;;;;;;4.10;1.92;;;5.60;99.90;;;;;;5089553;28;20077;-81
2023/04/14 00:49:11;;;;;;;4.10;2.03;;;5.60;99.90;;;;;;5077691;28;20024;-82
2023/04/14 00:51:36;;;;;;;5.20;2.08;;;5.60;99.90;;;;;;5089464;28;20053;-78
2023/04/14 00:54:05;;;;;;;5.35;2.17;;;5.60;99.90;;;;;;5078240;28;20474;-78
2023/04/14 00:56:32;;;;;;;4.10;2.13;;;5.60;99.90;;;;;;5077735;28;20093;-78
2023/04/14 00:59:00;;;;;;;4.15;2.03;;;5.60;99.90;;;;;;5077107;28;20040;-79
2023/04/14 01:01:27;;;;;;;4.80;1.98;;;5.50;99.90;;;;;;5091714;28;20084;-79
2023/04/14 01:03:54;;;;;;;4.75;2.28;;;5.50;99.90;;;;;;5078811;28;20032;-78
2023/04/14 01:06:20;;;;;;;6.13;2.72;;;5.40;99.90;;;;;;5071785;28;20016;-80
2023/04/14 01:08:47;;;;;;;6.90;2.17;;;5.30;99.90;;;;;;5089689;28;20081;-77
2023/04/14 01:11:21;;;;;;;3.72;2.33;;;5.30;99.90;;;;;;5072146;28;20103;-80
2023/04/14 01:14:10;;;;;;;5.85;2.70;;;5.30;99.90;;;;;;5080599;28;20181;-80
2023/04/14 01:16:39;;;;;;;5.40;2.17;;;5.20;99.90;;;;;;5074186;28;20511;-82
2023/04/14 01:19:27;;;;;;;4.50;2.38;;;5.20;99.90;;;;;;5071331;28;20031;-80
2023/04/14 01:21:58;;;;;;;5.43;2.50;;;5.10;99.90;;;;;;5070308;28;20514;-80
2023/04/14 01:24:36;;;;;;;4.88;2.65;;;5.10;99.90;;;;;;5076338;28;20047;-80
2023/04/14 01:27:19;;;;;;;3.65;2.35;;;5.00;99.90;;;;;;5089472;28;20119;-81
2023/04/14 01:30:12;;;;;;;4.40;2.22;;;5.00;99.90;;;;;;5070763;28;20030;-81
2023/04/14 01:32:43;;;;;;;3.70;2.13;;;5.00;99.90;;;;;;5077283;28;20116;-79
2023/04/14 01:35:19;;;;;;;4.50;2.30;;;5.00;99.90;;;;;;5089353;28;20032;-80
2023/04/14 01:37:49;;;;;;;6.38;2.70;;;4.90;99.90;;;;;;5079509;28;20040;-80
2023/04/14 01:40:17;;;;;;;4.85;1.80;;;4.90;99.90;;;;;;5088284;28;20036;-78
2023/04/14 01:42:55;;;;;;;5.80;2.35;;;4.90;99.90;;;;;;5089642;28;20024;-80
2023/04/14 01:45:27;;;;;;;5.10;2.42;;;4.90;99.90;;;;;;5087307;28;20024;-82
2023/04/14 01:47:54;;;;;;;6.95;3.10;;;4.90;99.90;;;;;;5073975;28;20035;-81
2023/04/14 01:50:22;;;;;;;6.38;2.90;;;4.90;99.90;;;;;;5076012;28;20026;-82
2023/04/14 01:52:53;;;;;;;6.10;2.40;;;4.90;99.90;;;;;;5074058;28;20447;-81
2023/04/14 01:55:19;;;;;;;4.97;2.60;;;4.90;99.90;;;;;;5077812;28;20125;-80
2023/04/14 01:57:49;;;;;;;5.15;2.67;;;4.80;99.90;;;;;;5088399;28;20124;-81
2023/04/14 02:00:17;;;;;;;5.28;2.97;;;4.80;99.90;;;;;;5077010;28;20035;-77
2023/04/14 02:02:49;;;;;;;5.38;2.63;;;4.80;99.90;;;;;;5075121;28;20024;-81
2023/04/14 02:05:17;;;;;;;5.85;2.83;;;4.80;99.90;;;;;;5074116;28;20024;-77
2023/04/14 02:07:47;;;;;;;6.10;2.70;;;4.70;99.90;;;;;;5089135;28;20046;-81
2023/04/14 02:10:17;;;;;;;5.20;3.08;;;4.70;99.90;;;;;;5075248;28;20138;-81
2023/04/14 02:12:43;;;;;;;6.85;3.17;;;4.70;99.90;;;;;;5074415;28;20493;-82
2023/04/14 02:15:14;;;;;;;4.78;2.67;;;4.70;99.90;;;;;;5088484;28;20390;-81
2023/04/14 02:17:41;;;;;;;5.50;3.20;;;4.60;99.90;;;;;;5088122;28;20032;-81
2023/04/14 02:20:09;;;;;;;5.93;3.00;;;4.60;99.90;;;;;;5088967;28;20111;-80
2023/04/14 02:22:35;;;;;;;7.22;3.03;;;4.60;99.90;;;;;;5087822;28;20031;-81
2023/04/14 02:25:01;;;;;;;6.40;3.50;;;4.60;99.90;;;;;;5087779;28;20439;-82
2023/04/14 02:27:38;;;;;;;5.38;2.95;;;4.60;99.90;;;;;;5088870;28;20181;-80
2023/04/14 02:30:12;;;;;;;5.28;3.17;;;4.60;99.90;;;;;;5075906;28;20020;-80
2023/04/14 02:32:42;;;;;;;4.25;2.50;;;4.50;99.90;;;;;;5077922;28;20085;-80
2023/04/14 02:35:25;;;;;;;3.92;2.47;;;4.50;99.90;;;;;;5075393;28;20020;-81
2023/04/14 02:37:54;;;;;;;5.97;2.70;;;4.50;99.90;;;;;;5089045;28;20024;-81
2023/04/14 02:40:28;;;;;;;5.95;2.90;;;4.50;99.90;;;;;;5087469;28;20107;-80
2023/04/14 02:43:03;;;;;;;5.47;3.30;;;4.40;99.90;;;;;;5088207;28;20056;-81
2023/04/14 02:45:31;;;;;;;6.93;3.25;;;4.40;99.90;;;;;;5086857;28;20111;-81
2023/04/14 02:48:12;;;;;;;5.68;3.15;;;4.40;99.90;;;;;;5086427;28;20085;-81
2023/04/14 02:50:42;;;;;;;5.50;3.03;;;4.30;99.90;;;;;;5075212;28;20028;-82
2023/04/14 02:53:09;;;;;;;5.53;3.05;;;4.40;99.90;;;;;;5071767;28;20030;-81
2023/04/14 02:55:35;;;;;;;5.90;3.13;;;4.30;99.90;;;;;;5085982;28;20352;-82
2023/04/14 02:58:01;;;;;;;6.13;3.22;;;4.30;99.90;;;;;;5074396;28;20390;-81
2023/04/14 03:00:27;;;;;;;5.40;3.13;;;4.30;99.90;;;;;;5087090;28;20023;-81
2023/04/14 03:02:54;;;;;;;4.10;2.90;;;4.30;99.90;;;;;;5086584;28;20062;-81
2023/04/14 03:05:20;;;;;;;5.50;3.03;;;4.20;99.90;;;;;;5087353;28;20027;-80
2023/04/14 03:07:46;;;;;;;5.30;3.13;;;4.30;99.90;;;;;;5087786;28;20040;-83
2023/04/14 03:10:12;;;;;;;4.68;3.20;;;4.20;99.90;;;;;;5087040;28;20081;-82
2023/04/14 03:12:40;;;;;;;7.30;2.90;;;4.20;99.90;;;;;;5073331;28;20063;-82
2023/04/14 03:15:07;;;;;;;6.35;3.33;;;4.20;99.90;;;;;;5087136;28;20381;-81
2023/04/14 03:17:33;;;;;;;5.55;3.10;;;4.10;99.90;;;;;;5071867;28;20097;-80
2023/04/14 03:20:00;;;;;;;8.00;3.47;;;4.10;99.90;;;;;;5085530;28;20031;-80
2023/04/14 03:22:27;;;;;;;5.05;3.38;;;4.10;99.90;;;;;;5085954;28;20052;-82
2023/04/14 03:24:57;;;;;;;5.78;3.10;;;4.10;99.90;;;;;;5074855;28;20436;-81
2023/04/14 03:27:26;;;;;;;5.85;3.17;;;4.00;99.90;;;;;;5073500;28;20059;-80
2023/04/14 03:29:54;;;;;;;7.35;3.10;;;4.00;99.90;;;;;;5087520;28;20038;-82
2023/04/14 03:32:22;;;;;;;5.63;3.03;;;4.00;99.90;;;;;;5076110;28;20028;-81
2023/04/14 03:34:53;;;;;;;4.88;2.92;;;3.90;99.90;;;;;;5086453;28;20036;-82
2023/04/14 03:37:23;;;;;;;4.53;3.05;;;3.90;99.90;;;;;;5085570;28;20044;-81
2023/04/14 03:39:51;;;;;;;6.80;3.47;;;3.90;99.90;;;;;;5077420;28;20035;-81
2023/04/14 03:42:19;;;;;;;4.95;2.80;;;3.90;99.90;;;;;;5086787;28;20065;-82
2023/04/14 03:44:50;;;;;;;5.07;3.13;;;3.90;99.90;;;;;;5074254;28;20016;-81
2023/04/14 03:47:17;;;;;;;7.43;3.47;;;3.80;99.90;;;;;;5074725;28;20118;-78
2023/04/14 03:49:46;;;;;;;4.82;3.28;;;3.80;99.90;;;;;;5075131;28;20020;-81
2023/04/14 03:52:14;;;;;;;6.10;3.13;;;3.80;99.90;;;;;;5075443;28;20417;-81
2023/04/14 03:54:42;;;;;;;5.15;3.20;;;3.80;99.90;;;;;;5086414;28;20040;-82
2023/04/14 03:57:10;;;;;;;5.35;3.50;;;3.80;99.90;;;;;;5087336;28;20086;-81
2023/04/14 03:59:38;;;;;;;6.25;3.40;;;3.80;99.90;;;;;;5086584;28;20024;-82
2023/04/14 04:02:06;;;;;;;5.88;3.28;;;3.70;99.90;;;;;;5074969;28;20333;-80
2023/04/14 04:04:33;;;;;;;7.35;3.92;;;3.70;99.90;;;;;;5073380;28;20382;-83
2023/04/14 04:06:59;;;;;;;6.28;3.70;;;3.70;99.90;;;;;;5085490;28;20050;-81
2023/04/14 04:09:26;;;;;;;5.50;3.40;;;3.70;99.90;;;;;;5085600;28;20458;-81
2023/04/14 04:11:56;;;;;;;7.88;3.80;;;3.70;99.90;;;;;;5072463;28;20517;-81
2023/04/14 04:14:24;;;;;;;7.68;4.22;;;3.70;99.90;;;;;;5074316;28;20055;-79
2023/04/14 04:16:52;;;;;;;5.57;3.38;;;3.60;99.90;;;;;;5068639;28;20077;-80
2023/04/14 04:19:20;;;;;;;6.57;3.80;;;3.60;99.90;;;;;;5086000;28;20123;-80
2023/04/14 04:21:48;;;;;;;5.47;3.42;;;3.60;99.90;;;;;;5086617;28;20129;-81
2023/04/14 04:24:16;;;;;;;7.28;3.72;;;3.70;99.90;;;;;;5084965;28;20024;-82
2023/04/14 04:26:42;;;;;;;6.25;3.55;;;3.60;99.90;;;;;;5074134;28;20494;-82
2023/04/14 04:29:09;;;;;;;5.30;3.35;;;3.60;99.90;;;;;;5086281;28;20024;-81
2023/04/14 04:31:35;;;;;;;8.32;3.70;;;3.60;99.90;;;;;;5074223;28;20028;-79
2023/04/14 04:34:04;;;;;;;5.43;3.15;;;3.60;99.90;;;;;;5073753;28;20096;-80
2023/04/14 04:36:32;;;;;;;5.18;3.35;;;3.60;99.90;;;;;;5073269;28;20043;-79
2023/04/14 04:38:57;;;;;;;6.85;3.40;;;3.60;99.90;;;;;;5085233;28;20031;-80
2023/04/14 04:41:28;;;;;;;5.85;4.03;;;3.50;99.90;;;;;;5086051;28;20432;-80
2023/04/14 04:43:55;;;;;;;5.97;3.28;;;3.60;99.90;;;;;;5082182;28;20036;-80
2023/04/14 04:46:40;;;;;;;6.53;3.45;;;3.50;99.90;;;;;;5086063;28;20078;-80
2023/04/14 04:49:05;;;;;;;6.10;3.65;;;3.50;99.90;;;;;;5086607;28;20039;-80
2023/04/14 04:51:31;;;;;;;5.70;3.38;;;3.50;99.90;;;;;;5086518;28;20393;-79
2023/04/14 04:53:56;;;;;;;6.22;3.35;;;3.50;99.90;;;;;;5074099;28;20032;-80
2023/04/14 04:56:22;;;;;;;5.10;3.58;;;3.50;99.90;;;;;;5084530;28;20048;-80
2023/04/14 04:58:47;;;;;;;5.35;3.33;;;3.50;99.90;;;;;;5087021;28;20450;-81
2023/04/14 05:01:18;;;;;;;7.80;4.05;;;3.50;99.90;;;;;;5073843;28;20078;-80
2023/04/14 05:03:44;;;;;;;5.82;3.42;;;3.50;99.90;;;;;;5086351;28;20119;-80
2023/04/14 05:06:10;;;;;;;7.10;4.15;;;3.40;99.90;;;;;;5073526;28;20030;-79
2023/04/14 05:08:35;;;;;;;6.57;3.47;;;3.40;99.90;;;;;;5072530;28;20036;-80
2023/04/14 05:11:01;;;;;;;6.28;4.00;;;3.40;99.90;;;;;;5087672;28;20028;-80
2023/04/14 05:13:26;;;;;;;8.40;3.85;;;3.40;99.90;;;;;;5077241;28;20047;-82
2023/04/14 05:16:04;;;;;;;7.28;3.42;;;3.40;99.90;;;;;;5072644;28;20053;-80
2023/04/14 05:18:30;;;;;;;5.63;3.17;;;3.50;99.90;;;;;;5075233;28;20028;-81
2023/04/14 05:21:04;;;;;;;7.15;4.22;;;3.50;99.90;;;;;;5076877;28;20028;-80
2023/04/14 05:23:32;;;;;;;6.95;3.80;;;3.50;99.90;;;;;;5088903;28;20023;-78
2023/04/14 05:25:58;;;;;;;7.30;3.67;;;3.60;99.90;;;;;;5076307;28;20032;-80
2023/04/14 05:28:24;;;;;;;6.15;3.55;;;3.50;99.90;;;;;;5087698;28;20051;-81
2023/04/14 05:30:50;;;;;;;7.53;4.30;;;3.60;99.90;;;;;;5089410;28;20024;-81
2023/04/14 05:33:16;;;;;;;5.93;3.53;;;3.60;99.90;;;;;;5089510;28;22009;-78
2023/04/14 05:35:43;;;;;;;6.53;3.72;;;3.60;99.90;;;;;;5075878;28;20481;-79
2023/04/14 05:38:09;;;;;;;8.15;3.78;;;3.60;99.90;;;;;;5089628;28;20052;-81
2023/04/14 05:40:35;;;;;;;7.13;3.85;;;3.60;99.90;;;;;;5076249;28;20088;-81
2023/04/14 05:43:01;;;;;;;6.22;3.70;;;3.70;99.90;;;;;;5088522;28;20032;-80
2023/04/14 05:45:26;;;;;;;5.50;3.60;;;3.70;99.90;;;;;;5074367;28;20032;-81
2023/04/14 05:47:52;;;;;;;5.32;3.05;;;3.80;99.90;;;;;;5088791;28;20028;-79
2023/04/14 05:50:17;;;;;;;5.53;3.17;;;3.80;99.90;;;;;;5089201;28;20391;-80
2023/04/14 05:52:43;;;;;;;9.65;3.58;;;3.90;99.90;;;;;;5077004;28;20043;-80
2023/04/14 05:55:09;;;;;;;11.68;3.58;;;4.00;99.90;;;;;;5076710;28;20020;-81
2023/04/14 05:57:35;;;;;;;7.05;3.40;;;4.10;99.90;;;;;;5075784;28;20133;-81
2023/04/14 06:00:00;;;;;;;6.13;3.47;;;4.10;99.90;;;;;;5075202;28;20091;-80
2023/04/14 06:02:26;;;;;;;6.10;3.83;;;4.20;99.90;;;;;;5077800;28;20030;-79
2023/04/14 06:04:51;;;;;;;5.55;3.30;;;4.20;99.90;;;;;;5071597;28;20104;-80
2023/04/14 06:07:17;;;;;;;7.63;3.42;;;4.30;99.90;;;;;;5073554;28;20054;-81
2023/04/14 06:09:45;;;;;;;5.93;3.50;;;4.30;99.90;;;;;;5075390;28;20032;-82
2023/04/14 06:12:12;;;;;;;8.10;3.53;;;4.40;99.90;;;;;;5074915;28;20031;-80
2023/04/14 06:14:38;;;;;;;6.28;3.78;;;4.40;99.90;;;;;;5087978;28;20085;-79
2023/04/14 06:17:04;;;;;;;6.82;3.47;;;4.50;99.90;;;;;;5075253;28;20027;-81
2023/04/14 06:19:29;;;;;;;6.35;3.55;;;4.60;99.90;;;;;;5088621;28;20088;-81
2023/04/14 06:21:55;;;;;;;6.13;3.10;;;4.70;99.90;;;;;;5088324;28;20119;-81
2023/04/14 06:24:20;;;;;;;6.75;3.13;;;4.80;99.90;;;;;;5088310;28;20629;-80
2023/04/14 06:26:46;;;;;;;8.95;3.75;;;4.90;99.90;;;;;;5077378;28;20064;-80
2023/04/14 06:29:12;;;;;;;6.43;3.55;;;5.00;99.90;;;;;;5089061;28;20028;-80
2023/04/14 06:31:37;;;;;;;7.15;3.90;;;5.00;99.90;;;;;;5073698;28;20101;-80
2023/04/14 06:34:03;;;;;;;7.88;3.50;;;5.10;99.90;;;;;;5087305;28;20715;-80
2023/04/14 06:36:28;;;;;;;6.07;3.65;;;5.20;99.90;;;;;;5088601;28;20104;-79
2023/04/14 06:38:55;;;;;;;5.85;3.10;;;5.30;99.90;;;;;;5087810;28;20467;-80
2023/04/14 06:41:21;;;;;;;5.78;3.00;;;5.30;99.90;;;;;;5075522;28;20119;-81
2023/04/14 06:43:47;;;;;;;6.95;2.80;;;5.40;99.90;;;;;;5075255;28;20114;-82
2023/04/14 06:46:12;;;;;;;7.15;2.83;;;5.40;99.90;;;;;;5074342;28;20032;-81
2023/04/14 06:48:38;;;;;;;5.47;2.97;;;5.40;99.90;;;;;;5086238;28;20100;-81
2023/04/14 06:51:03;;;;;;;6.63;3.28;;;5.50;99.90;;;;;;5087790;28;20089;-80
2023/04/14 06:53:29;;;;;;;5.18;2.67;;;5.50;99.90;;;;;;5074297;28;20481;-79
2023/04/14 06:55:58;;;;;;;5.18;2.40;;;5.60;99.90;;;;;;5087784;28;20030;-80
2023/04/14 06:58:27;;;;;;;6.38;2.92;;;5.60;99.90;;;;;;5076000;28;20039;-80
2023/04/14 07:00:56;;;;;;;8.02;2.33;;;5.70;99.90;;;;;;5087943;28;20012;-82
2023/04/14 07:03:22;;;;;;;6.75;3.38;;;5.80;99.90;;;;;;5069430;28;20081;-79
2023/04/14 07:05:48;;;;;;;6.13;2.95;;;5.90;99.90;;;;;;5073825;28;20382;-80
2023/04/14 07:08:13;;;;;;;7.03;3.15;;;6.00;99.90;;;;;;5074479;28;20371;-81
2023/04/14 07:10:39;;;;;;;6.22;3.60;;;6.10;99.90;;;;;;5075396;28;20691;-82
2023/04/14 07:13:05;;;;;;;5.43;3.25;;;6.20;99.90;;;;;;5087544;28;20035;-81
2023/04/14 07:15:30;;;;;;;5.63;2.78;;;6.30;99.90;;;;;;5087136;28;20556;-82
2023/04/14 07:17:56;;;;;;;7.18;2.80;;;6.30;99.90;;;;;;5079955;28;20032;-83
2023/04/14 07:20:22;;;;;;;7.95;3.53;;;6.40;99.90;;;;;;5086486;28;20067;-81
2023/04/14 07:22:47;;;;;;;9.48;3.28;;;6.50;99.90;;;;;;5076948;28;20032;-81
2023/04/14 07:25:13;;;;;;;5.50;3.22;;;6.60;99.90;;;;;;5087570;28;20016;-82
2023/04/14 07:27:39;;;;;;;7.40;2.97;;;6.70;99.90;;;;;;5074641;28;20128;-80
2023/04/14 07:30:05;;;;;;;7.55;2.95;;;6.80;99.90;;;;;;5087869;28;20039;-81
2023/04/14 07:32:31;;;;;;;7.47;3.08;;;6.90;99.90;;;;;;5070299;28;20046;-80
2023/04/14 07:34:57;;;;;;;6.38;2.88;;;7.00;99.90;;;;;;5074907;28;20549;-81
2023/04/14 07:37:23;;;;;;;8.85;3.90;;;7.10;99.90;;;;;;5079025;28;20112;-82
2023/04/14 07:39:48;;;;;;;7.90;3.33;;;7.20;99.90;;;;;;5087897;28;20024;-79
2023/04/14 07:42:14;;;;;;;5.38;3.00;;;7.30;99.90;;;;;;5074221;28;20024;-81
2023/04/14 07:44:40;;;;;;;7.40;2.85;;;7.50;99.90;;;;;;5087219;28;20428;-81
2023/04/14 07:47:06;;;;;;;7.43;2.70;;;7.60;99.90;;;;;;5073742;28;20047;-81
2023/04/14 07:49:31;;;;;;;5.60;2.38;;;7.60;99.90;;;;;;5087737;28;20527;-82
2023/04/14 07:51:57;;;;;;;5.00;2.00;;;7.70;99.90;;;;;;5086321;28;20028;-79
2023/04/14 07:54:23;;;;;;;5.60;2.88;;;7.80;99.90;;;;;;5074754;28;20027;-79
2023/04/14 07:56:48;;;;;;;4.85;2.13;;;7.80;99.90;;;;;;5074847;28;20051;-80
2023/04/14 07:59:14;;;;;;;5.63;2.10;;;7.90;99.90;;;;;;5073438;28;20038;-82
2023/04/14 08:01:40;;;;;;;7.97;2.30;;;8.00;99.90;;;;;;5086946;28;20028;-79
2023/04/14 08:04:06;;;;;;;6.30;2.90;;;8.00;99.90;;;;;;5087020;28;20035;-81
2023/04/14 08:06:31;;;;;;;6.95;2.50;;;8.20;99.90;;;;;;5074453;28;20057;-81
2023/04/14 08:08:57;;;;;;;7.80;2.63;;;8.30;99.90;;;;;;5075987;28;20058;-82
2023/04/14 08:11:23;;;;;;;8.32;2.42;;;8.40;99.90;;;;;;5074687;28;20019;-82
2023/04/14 08:13:51;;;;;;;9.30;2.22;;;8.60;99.90;;;;;;5087040;28;20455;-82
2023/04/14 08:16:18;;;;;;;7.57;2.63;;;8.70;99.90;;;;;;5074280;28;20020;-80
2023/04/14 08:18:44;;;;;;;4.30;2.05;;;8.80;99.90;;;;;;5076284;28;20020;-82
2023/04/14 08:21:10;;;;;;;7.22;1.95;;;8.90;99.90;;;;;;5077201;28;20111;-82
2023/04/14 08:23:36;;;;;;;4.20;1.52;;;9.00;99.90;;;;;;5086536;28;20028;-82
2023/04/14 08:26:02;;;;;;;7.65;2.45;;;9.10;99.90;;;;;;5073694;28;20032;-84
2023/04/14 08:28:28;;;;;;;9.35;2.40;;;9.20;99.90;;;;;;5086855;28;20417;-83
2023/04/14 08:30:54;;;;;;;5.15;2.13;;;9.30;99.90;;;;;;5086950;28;20028;-81
2023/04/14 08:33:20;;;;;;;6.35;2.15;;;9.40;99.90;;;;;;5086761;28;20428;-82
2023/04/14 08:35:45;;;;;;;5.60;1.70;;;9.50;99.90;;;;;;5077409;28;20031;-82
2023/04/14 08:38:11;;;;;;;6.05;1.70;;;9.60;99.90;;;;;;5073436;28;20020;-82
2023/04/14 08:40:42;;;;;;;5.35;1.40;;;9.70;99.90;;;;;;5087741;28;20024;-82
2023/04/14 08:43:08;;;;;;;6.70;2.05;;;9.70;99.90;;;;;;5087383;28;20039;-81
2023/04/14 08:45:34;;;;;;;7.70;1.90;;;9.80;99.90;;;;;;5074312;28;20022;-80
2023/04/14 08:48:01;;;;;;;4.10;1.33;;;9.90;99.90;;;;;;5077127;28;20422;-81
2023/04/14 08:50:35;;;;;;;5.47;1.70;;;10.00;99.90;;;;;;5073706;28;20050;-80
2023/04/14 08:53:04;;;;;;;8.57;2.10;;;10.10;99.90;;;;;;5090933;28;20514;-81
2023/04/14 08:55:31;;;;;;;6.95;1.98;;;10.20;99.90;;;;;;5080310;28;20034;-81
2023/04/14 08:57:59;;;;;;;10.27;2.50;;;10.30;99.90;;;;;;5075014;28;20490;-82
2023/04/14 09:00:25;;;;;;;8.48;2.10;;;10.40;99.90;;;;;;5079443;28;20449;-81
2023/04/14 09:02:51;;;;;;;10.68;2.50;;;10.40;99.90;;;;;;5090630;28;20110;-81
2023/04/14 09:05:17;;;;;;;10.32;2.70;;;10.50;99.90;;;;;;5076743;28;20394;-80
2023/04/14 09:07:43;;;;;;;10.40;2.10;;;10.70;99.90;;;;;;5076477;28;20028;-81
2023/04/14 09:10:10;;;;;;;6.80;2.42;;;10.80;99.90;;;;;;5077316;28;20330;-82
2023/04/14 09:12:38;;;;;;;5.20;1.77;;;10.80;99.90;;;;;;5081456;28;20072;-83
2023/04/14 09:15:04;;;;;;;7.88;1.80;;;11.00;99.90;;;;;;5076266;28;20105;-80
2023/04/14 09:17:30;;;;;;;7.88;2.35;;;11.00;99.90;;;;;;5089620;28;20436;-85
2023/04/14 09:19:56;;;;;;;4.63;1.58;;;11.20;99.90;;;;;;5090019;28;20028;-83
2023/04/14 09:22:22;;;;;;;7.32;1.90;;;11.30;99.90;;;;;;5076739;28;20487;-82
2023/04/14 09:24:48;;;;;;;5.25;2.05;;;11.40;99.90;;;;;;5090185;28;20055;-81
2023/04/14 09:27:14;;;;;;;4.93;1.88;;;11.50;99.90;;;;;;5078186;28;20040;-81
2023/04/14 09:29:40;;;;;;;4.50;1.70;;;11.60;99.90;;;;;;5078926;28;20027;-82
2023/04/14 09:32:08;;;;;;;5.28;1.20;;;11.70;99.90;;;;;;5090405;28;20032;-83
2023/04/14 09:34:34;;;;;;;5.63;1.88;;;11.90;99.90;;;;;;5070879;28;20023;-84
2023/04/14 09:37:07;;;;;;;5.50;1.15;;;11.90;99.90;;;;;;5078168;28;20583;-83
2023/04/14 09:39:33;;;;;;;;;;;12.00;99.90;;;;;;5089370;28;20035;-83
2023/04/14 09:42:00;;;;;;;4.50;1.15;;;12.60;99.90;;;;;;5075861;28;19934;-84
2023/04/14 09:44:26;;;;;;;7.65;1.65;;;14.00;99.90;;;;;;5088195;28;20035;-82
2023/04/14 09:47:04;;;;;;;5.90;1.15;;;15.30;99.90;;;;;;5087626;28;20063;-81
2023/04/14 09:49:30;;;;;;;6.55;1.20;;;16.40;99.90;;;;;;5075812;28;20020;-82
2023/04/14 09:52:07;;;;;;;5.10;1.15;;;17.10;99.90;;;;;;5090193;28;20028;-83
2023/04/14 09:54:33;;;;;;;5.47;1.08;;;17.60;99.90;;;;;;5088762;28;20174;-82
2023/04/14 09:57:00;;;;;;;4.72;1.20;;;18.20;99.90;;;;;;5089274;28;20051;-81
2023/04/14 09:59:45;;;;;;;6.10;1.10;;;18.80;99.90;;;;;;5088810;28;20145;-83
2023/04/14 10:02:11;;;;;;;6.65;1.58;;;19.10;99.90;;;;;;5089422;28;20024;-82
2023/04/14 10:04:37;;;;;;;4.55;1.30;;;19.30;99.90;;;;;;5089227;28;20024;-82
2023/04/14 10:07:06;;;;;;;2.95;1.20;;;19.70;99.90;;;;;;5078976;28;20032;-83
2023/04/14 10:09:36;;;;;;;3.92;1.15;;;19.80;99.90;;;;;;5075633;28;20059;-82
2023/04/14 10:12:16;;;;;;;3.88;0.93;;;19.30;99.90;;;;;;5076897;28;20038;-82
2023/04/14 10:14:43;;;;;;;5.22;0.95;;;19.60;99.90;;;;;;5078112;28;20024;-83
2023/04/14 10:17:09;;;;;;;3.25;1.00;;;20.10;99.90;;;;;;5075478;28;20398;-84
2023/04/14 10:19:36;;;;;;;3.38;1.40;;;20.50;99.90;;;;;;5076543;28;20420;-84
2023/04/14 10:22:04;;;;;;;3.45;1.10;;;20.90;99.70;;;;;;5075860;28;20490;-84
2023/04/14 10:24:30;;;;;;;2.85;1.00;;;20.90;99.90;;;;;;5088727;28;20024;-82
2023/04/14 10:26:57;;;;;;;1.85;0.73;;;21.20;99.90;;;;;;5076108;28;20047;-83
2023/04/14 10:29:23;;;;;;;3.10;1.02;;;21.70;99.90;;;;;;5088359;28;20065;-85
2023/04/14 10:31:57;;;;;;;5.43;1.40;;;22.00;99.00;;;;;;5088591;28;20147;-83
2023/04/14 10:34:24;;;;;;;4.00;1.08;;;22.10;98.70;;;;;;5087806;28;20107;-84
2023/04/14 10:36:50;;;;;;;3.35;1.05;;;22.20;97.90;;;;;;5071329;28;20039;-84
2023/04/14 10:39:23;;;;;;;3.13;0.90;;;22.50;98.30;;;;;;5073522;28;20020;-83
2023/04/14 10:41:54;;;;;;;3.88;1.38;;;22.90;97.90;;;;;;5076995;28;20020;-81
2023/04/14 10:44:39;;;;;;;4.40;1.00;;;22.50;94.30;;;;;;5087986;28;20036;-82
2023/04/14 10:47:06;;;;;;;3.78;1.15;;;21.00;95.60;;;;;;5076638;28;20052;-84
2023/04/14 10:49:39;;;;;;;4.72;1.30;;;21.00;96.90;;;;;;5075934;28;20028;-84
2023/04/14 10:52:26;;;;;;;5.97;1.33;;;21.40;95.80;;;;;;5078277;28;20051;-84
2023/04/14 10:54:59;;;;;;;2.97;1.05;;;21.60;95.10;;;;;;5080413;28;20042;-82
2023/04/14 10:57:26;;;;;;;3.35;1.05;;;21.90;95.50;;;;;;5088075;28;20059;-84
2023/04/14 10:59:54;;;;;;;3.70;0.90;;;22.50;95.90;;;;;;5076042;28;20022;-82
2023/04/14 11:02:32;;;;;;;4.45;1.35;;;22.90;95.20;;;;;;5088084;28;20055;-83
2023/04/14 11:05:04;;;;;;;4.45;1.10;;;23.20;92.90;;;;;;5076112;28;20066;-82
2023/04/14 11:07:36;;;;;;;2.60;0.98;;;22.90;92.50;;;;;;5089106;28;20036;-82
2023/04/14 11:10:20;;;;;;;2.65;0.75;;;22.70;92.70;;;;;;5088140;28;20251;-82
2023/04/14 11:12:48;;;;;;;3.97;0.70;;;22.60;93.70;;;;;;5075748;28;20046;-84
2023/04/14 11:15:14;;;;;;;4.47;1.30;;;23.00;93.80;;;;;;5088920;28;20156;-82
2023/04/14 11:17:44;;;;;;;4.45;0.95;;;23.50;92.50;;;;;;5088488;28;20093;-87
2023/04/14 11:20:21;;;;;;;2.50;1.00;;;23.40;91.30;;;;;;5087719;28;20032;-86
2023/04/14 11:22:51;;;;;;;4.45;0.80;;;23.50;91.90;;;;;;5088285;28;20028;-83
2023/04/14 11:25:19;;;;;;;2.95;0.80;;;23.80;92.30;;;;;;5074560;28;20036;-85
2023/04/14 11:27:47;;;;;;;3.13;1.00;;;24.00;91.60;;;;;;5087989;28;20462;-83
2023/04/14 11:30:15;;;;;;;5.28;1.10;;;24.10;91.90;;;;;;5075211;28;20024;-83
2023/04/14 11:32:58;;;;;;;2.58;0.88;;;24.20;90.50;;;;;;5073701;28;20024;-82
2023/04/14 11:35:28;;;;;;;3.58;0.90;;;23.80;90.40;;;;;;5087197;28;20553;-79
2023/04/14 11:37:59;;;;;;;2.95;0.82;;;24.10;90.90;;;;;;5087321;28;20028;-82
2023/04/14 11:40:26;;;;;;;3.70;1.00;;;24.70;91.30;;;;;;5074079;28;20032;-82
2023/04/14 11:42:53;;;;;;;3.13;0.90;;;25.20;91.30;;;;;;5075311;28;20016;-84
2023/04/14 11:45:19;;;;;;;3.50;1.00;;;25.00;91.00;;;;;;5076420;28;20081;-83
2023/04/14 11:48:02;;;;;;;2.75;1.00;;;25.00;89.40;;;;;;5077797;28;20044;-84
2023/04/14 11:50:37;;;;;;;4.57;1.33;;;25.10;89.80;;;;;;5091448;28;20038;-81
2023/04/14 11:53:09;;;;;;;4.53;0.80;;;24.60;88.20;;;;;;5087316;28;20028;-81
2023/04/14 11:55:35;;;;;;;3.57;1.00;;;24.40;89.20;;;;;;5085639;28;20028;-80
2023/04/14 11:58:01;;;;;;;5.40;1.20;;;24.60;90.00;;;;;;5085444;28;20056;-80
2023/04/14 12:00:27;;;;;;;4.82;1.10;;;24.70;87.80;;;;;;5075772;28;20020;-81
2023/04/14 12:02:53;;;;;;;3.80;1.02;;;24.70;87.50;;;;;;5076936;28;20363;-83
2023/04/14 12:05:24;;;;;;;3.72;0.85;;;25.10;88.00;;;;;;5086013;28;20394;-82
2023/04/14 12:07:56;;;;;;;3.35;1.00;;;25.20;86.50;;;;;;5074927;28;20027;-82
2023/04/14 12:10:22;;;;;;;2.90;0.57;;;24.60;83.70;;;;;;5086841;28;20024;-81
2023/04/14 12:12:48;;;;;;;1.98;0.70;;;23.80;87.00;;;;;;5086395;28;20032;-84
2023/04/14 12:15:14;;;;;;;2.60;0.80;;;23.80;87.90;;;;;;5071492;28;20209;-81
2023/04/14 12:17:40;;;;;;;3.85;0.80;;;24.50;88.20;;;;;;5086919;28;20123;-83
2023/04/14 12:20:14;;;;;;;2.92;0.73;;;25.10;87.30;;;;;;5076478;28;20027;-82
2023/04/14 12:22:40;;;;;;;2.90;0.75;;;25.40;87.60;;;;;;5089021;28;20073;-81
2023/04/14 12:25:12;;;;;;;3.80;1.08;;;25.70;88.30;;;;;;5076570;28;20927;-82
2023/04/14 12:27:38;;;;;;;3.63;0.93;;;26.00;88.60;;;;;;5077626;28;20036;-83
2023/04/14 12:30:08;;;;;;;3.80;1.00;;;26.40;89.10;;;;;;5090102;28;20393;-87
2023/04/14 12:32:41;;;;;;;3.42;0.80;;;26.50;88.60;;;;;;5074329;28;20032;-83
2023/04/14 12:35:07;;;;;;;3.40;0.85;;;26.30;88.00;;;;;;5070291;27;20382;-84
2023/04/14 12:37:34;;;;;;;3.60;1.05;;;25.10;88.50;;;;;;5069653;28;20036;-84
2023/04/14 12:40:00;;;;;;;4.65;1.10;;;24.30;88.80;;;;;;5088045;28;20070;-82
2023/04/14 12:42:50;;;;;;;4.00;0.85;;;22.90;89.30;;;;;;5076548;28;20071;-84
2023/04/14 12:45:16;;;;;;;3.63;0.85;;;21.70;90.10;;;;;;5090377;28;20039;-80
2023/04/14 12:47:51;;;;;;;2.72;0.88;;;20.80;90.40;;;;;;5076922;28;20015;-83
2023/04/14 12:50:28;;;;;;;3.90;1.00;;;20.40;90.80;;;;;;5089738;28;20110;-84
2023/04/14 12:52:55;;;;;;;4.88;1.23;;;20.40;91.40;;;;;;5078580;28;20032;-84
2023/04/14 12:55:26;;;;;;;2.80;0.90;;;20.40;91.40;;;;;;5089037;28;20017;-83
2023/04/14 12:57:58;;;;;;;2.78;0.73;;;20.60;91.60;;;;;;5077363;28;20504;-84